sensor_id;sensor_type;location;lat;lon;timestamp;pressure;altitude;pressure_sealevel;temperature;humidity
17615;BME280;8926;49.720;6.576;2023-01-26T00:00:25;100504.31;;;1.43;84.04
17615;BME280;8926;49.720;6.576;2023-01-26T00:02:50;100512.06;;;1.36;83.33
17615;BME280;8926;49.720;6.576;2023-01-26T00:05:16;100519.81;;;1.33;84.13
17615;BME280;8926;49.720;6.576;2023-01-26T00:07:41;100506.94;;;1.33;84.45
17615;BME280;8926;49.720;6.576;2023-01-26T00:10:10;100502.63;;;1.35;84.31
17615;BME280;8926;49.720;6.576;2023-01-26T00:12:35;100496.63;;;1.36;84.02
17615;BME280;8926;49.720;6.576;2023-01-26T00:15:01;100497.47;;;1.39;84.42
17615;BME280;8926;49.720;6.576;2023-01-26T00:17:26;100500.88;;;1.41;83.86
17615;BME280;8926;49.720;6.576;2023-01-26T00:19:52;100500.03;;;1.39;84.18
17615;BME280;8926;49.720;6.576;2023-01-26T00:22:18;100501.75;;;1.40;84.05
17615;BME280;8926;49.720;6.576;2023-01-26T00:24:43;100503.47;;;1.41;84.20
17615;BME280;8926;49.720;6.576;2023-01-26T00:27:09;100503.50;;;1.34;84.10
17615;BME280;8926;49.720;6.576;2023-01-26T00:29:34;100505.22;;;1.32;84.16
17615;BME280;8926;49.720;6.576;2023-01-26T00:31:59;100513.81;;;1.31;84.15
17615;BME280;8926;49.720;6.576;2023-01-26T00:34:25;100517.25;;;1.30;83.73
17615;BME280;8926;49.720;6.576;2023-01-26T00:36:50;100511.28;;;1.27;83.74
17615;BME280;8926;49.720;6.576;2023-01-26T00:39:15;100506.16;;;1.27;83.58
17615;BME280;8926;49.720;6.576;2023-01-26T00:41:41;100503.56;;;1.28;83.85
17615;BME280;8926;49.720;6.576;2023-01-26T00:44:24;100512.09;;;1.30;84.24
17615;BME280;8926;49.720;6.576;2023-01-26T00:46:50;100524.09;;;1.31;83.98
17615;BME280;8926;49.720;6.576;2023-01-26T00:49:15;100523.25;;;1.31;83.76
17615;BME280;8926;49.720;6.576;2023-01-26T00:51:40;100520.72;;;1.29;84.64
17615;BME280;8926;49.720;6.576;2023-01-26T00:54:05;100522.41;;;1.30;84.50
17615;BME280;8926;49.720;6.576;2023-01-26T00:56:31;100523.22;;;1.34;84.06
17615;BME280;8926;49.720;6.576;2023-01-26T00:58:56;100517.22;;;1.36;83.67
17615;BME280;8926;49.720;6.576;2023-01-26T01:01:21;100516.38;;;1.31;83.87
17615;BME280;8926;49.720;6.576;2023-01-26T01:03:47;100525.81;;;1.32;84.39
17615;BME280;8926;49.720;6.576;2023-01-26T01:06:14;100519.81;;;1.33;84.47
17615;BME280;8926;49.720;6.576;2023-01-26T01:08:39;100518.97;;;1.31;83.86
17615;BME280;8926;49.720;6.576;2023-01-26T01:11:07;100517.28;;;1.27;83.88
17615;BME280;8926;49.720;6.576;2023-01-26T01:13:32;100507.00;;;1.27;85.18
17615;BME280;8926;49.720;6.576;2023-01-26T01:15:57;100507.00;;;1.27;84.83
17615;BME280;8926;49.720;6.576;2023-01-26T01:18:23;100503.56;;;1.28;85.98
17615;BME280;8926;49.720;6.576;2023-01-26T01:20:48;100507.84;;;1.29;87.16
17615;BME280;8926;49.720;6.576;2023-01-26T01:23:13;100505.28;;;1.29;87.16
17615;BME280;8926;49.720;6.576;2023-01-26T01:25:39;100508.72;;;1.28;87.11
17615;BME280;8926;49.720;6.576;2023-01-26T01:28:04;100510.44;;;1.26;87.05
17615;BME280;8926;49.720;6.576;2023-01-26T01:30:29;100508.72;;;1.25;87.72
17615;BME280;8926;49.720;6.576;2023-01-26T01:32:54;100507.88;;;1.22;87.52
17615;BME280;8926;49.720;6.576;2023-01-26T01:35:20;100510.47;;;1.20;87.54
17615;BME280;8926;49.720;6.576;2023-01-26T01:37:45;100507.88;;;1.22;87.26
17615;BME280;8926;49.720;6.576;2023-01-26T01:40:12;100509.59;;;1.23;87.59
17615;BME280;8926;49.720;6.576;2023-01-26T01:42:37;100508.75;;;1.19;86.65
17615;BME280;8926;49.720;6.576;2023-01-26T01:45:35;100496.78;;;1.15;85.98
17615;BME280;8926;49.720;6.576;2023-01-26T01:48:04;100497.66;;;1.13;85.25
17615;BME280;8926;49.720;6.576;2023-01-26T01:50:36;100491.63;;;1.15;85.29
17615;BME280;8926;49.720;6.576;2023-01-26T01:53:03;100496.75;;;1.18;85.15
17615;BME280;8926;49.720;6.576;2023-01-26T01:55:30;100486.44;;;1.21;84.90
17615;BME280;8926;49.720;6.576;2023-01-26T01:57:57;100481.31;;;1.20;84.71
17615;BME280;8926;49.720;6.576;2023-01-26T02:00:24;100485.59;;;1.21;84.11
17615;BME280;8926;49.720;6.576;2023-01-26T02:03:04;100482.16;;;1.20;83.67
17615;BME280;8926;49.720;6.576;2023-01-26T02:05:50;100478.75;;;1.20;83.95
17615;BME280;8926;49.720;6.576;2023-01-26T02:08:17;100472.75;;;1.19;83.85
17615;BME280;8926;49.720;6.576;2023-01-26T02:10:48;100471.00;;;1.20;83.75
17615;BME280;8926;49.720;6.576;2023-01-26T02:13:17;100457.28;;;1.19;83.82
17615;BME280;8926;49.720;6.576;2023-01-26T02:15:44;100457.28;;;1.22;83.71
17615;BME280;8926;49.720;6.576;2023-01-26T02:18:09;100469.28;;;1.23;83.16
17615;BME280;8926;49.720;6.576;2023-01-26T02:20:48;100462.44;;;1.22;83.30
17615;BME280;8926;49.720;6.576;2023-01-26T02:23:26;100454.72;;;1.21;83.16
17615;BME280;8926;49.720;6.576;2023-01-26T02:25:57;100442.78;;;1.09;83.08
17615;BME280;8926;49.720;6.576;2023-01-26T02:28:25;100441.94;;;1.07;83.21
17615;BME280;8926;49.720;6.576;2023-01-26T02:30:52;100446.22;;;1.07;82.99
17615;BME280;8926;49.720;6.576;2023-01-26T02:33:22;100447.16;;;1.01;82.43
17615;BME280;8926;49.720;6.576;2023-01-26T02:35:48;100442.03;;;0.95;82.15
17615;BME280;8926;49.720;6.576;2023-01-26T02:38:14;100437.78;;;0.86;82.69
17615;BME280;8926;49.720;6.576;2023-01-26T02:40:45;100441.31;;;0.75;82.47
17615;BME280;8926;49.720;6.576;2023-01-26T02:43:14;100435.34;;;0.63;83.13
17615;BME280;8926;49.720;6.576;2023-01-26T02:45:39;100437.13;;;0.52;82.92
17615;BME280;8926;49.720;6.576;2023-01-26T02:48:05;100432.88;;;0.50;83.61
17615;BME280;8926;49.720;6.576;2023-01-26T02:50:32;100438.00;;;0.51;82.55
17615;BME280;8926;49.720;6.576;2023-01-26T02:52:58;100432.91;;;0.39;82.83
17615;BME280;8926;49.720;6.576;2023-01-26T02:55:24;100427.81;;;0.30;82.71
17615;BME280;8926;49.720;6.576;2023-01-26T02:57:55;100423.56;;;0.23;83.24
17615;BME280;8926;49.720;6.576;2023-01-26T03:00:23;100433.88;;;0.17;83.39
17615;BME280;8926;49.720;6.576;2023-01-26T03:02:50;100432.16;;;0.13;82.93
17615;BME280;8926;49.720;6.576;2023-01-26T03:05:16;100421.88;;;0.16;83.39
17615;BME280;8926;49.720;6.576;2023-01-26T03:07:41;100416.72;;;0.19;83.87
17615;BME280;8926;49.720;6.576;2023-01-26T03:10:07;100415.00;;;0.24;83.17
17615;BME280;8926;49.720;6.576;2023-01-26T03:12:33;100423.56;;;0.23;83.27
17615;BME280;8926;49.720;6.576;2023-01-26T03:14:58;100410.72;;;0.23;82.77
17615;BME280;8926;49.720;6.576;2023-01-26T03:17:42;100397.81;;;0.30;84.27
17615;BME280;8926;49.720;6.576;2023-01-26T03:20:08;100398.66;;;0.32;82.77
17615;BME280;8926;49.720;6.576;2023-01-26T03:22:53;100402.09;;;0.36;83.64
17615;BME280;8926;49.720;6.576;2023-01-26T03:25:37;100401.22;;;0.36;82.84
17615;BME280;8926;49.720;6.576;2023-01-26T03:28:21;100396.09;;;0.34;82.18
17615;BME280;8926;49.720;6.576;2023-01-26T03:30:51;100391.81;;;0.30;82.25
17615;BME280;8926;49.720;6.576;2023-01-26T03:33:18;100394.41;;;0.27;82.22
17615;BME280;8926;49.720;6.576;2023-01-26T03:35:44;100392.75;;;0.23;82.63
17615;BME280;8926;49.720;6.576;2023-01-26T03:38:10;100394.47;;;0.15;82.50
17615;BME280;8926;49.720;6.576;2023-01-26T03:40:35;100385.91;;;0.13;83.58
17615;BME280;8926;49.720;6.576;2023-01-26T03:43:19;100387.66;;;0.08;82.46
17615;BME280;8926;49.720;6.576;2023-01-26T03:46:04;100387.66;;;0.02;82.55
17615;BME280;8926;49.720;6.576;2023-01-26T03:48:49;100387.72;;;-0.02;83.08
17615;BME280;8926;49.720;6.576;2023-01-26T03:51:33;100382.53;;;0.02;83.24
17615;BME280;8926;49.720;6.576;2023-01-26T03:54:17;100375.69;;;0.04;83.36
17615;BME280;8926;49.720;6.576;2023-01-26T03:57:01;100381.66;;;0.10;83.01
17615;BME280;8926;49.720;6.576;2023-01-26T03:59:26;100385.94;;;0.04;81.91
17615;BME280;8926;49.720;6.576;2023-01-26T04:02:12;100377.44;;;-0.03;82.47
17615;BME280;8926;49.720;6.576;2023-01-26T04:04:56;100380.84;;;-0.03;82.82
17615;BME280;8926;49.720;6.576;2023-01-26T04:07:40;100375.72;;;-0.03;82.55
17615;BME280;8926;49.720;6.576;2023-01-26T04:10:26;100375.72;;;-0.03;82.66
17615;BME280;8926;49.720;6.576;2023-01-26T04:12:51;100378.28;;;-0.04;82.35
17615;BME280;8926;49.720;6.576;2023-01-26T04:15:35;100384.28;;;-0.07;82.59
17615;BME280;8926;49.720;6.576;2023-01-26T04:18:20;100379.16;;;-0.10;82.72
17615;BME280;8926;49.720;6.576;2023-01-26T04:21:05;100385.16;;;-0.12;83.08
17615;BME280;8926;49.720;6.576;2023-01-26T04:23:51;100384.31;;;-0.17;82.53
17615;BME280;8926;49.720;6.576;2023-01-26T04:26:16;100386.03;;;-0.15;82.93
17615;BME280;8926;49.720;6.576;2023-01-26T04:28:42;100386.03;;;-0.15;83.08
17615;BME280;8926;49.720;6.576;2023-01-26T04:31:07;100380.88;;;-0.15;82.87
17615;BME280;8926;49.720;6.576;2023-01-26T04:33:33;100376.59;;;-0.13;83.28
17615;BME280;8926;49.720;6.576;2023-01-26T04:36:03;100389.44;;;-0.13;82.58
17615;BME280;8926;49.720;6.576;2023-01-26T04:38:28;100391.16;;;-0.18;82.22
17615;BME280;8926;49.720;6.576;2023-01-26T04:40:54;100391.16;;;-0.18;83.74
17615;BME280;8926;49.720;6.576;2023-01-26T04:43:19;100384.31;;;-0.16;83.35
17615;BME280;8926;49.720;6.576;2023-01-26T04:45:58;100384.31;;;-0.20;83.20
17615;BME280;8926;49.720;6.576;2023-01-26T04:48:25;100378.34;;;-0.22;82.53
17615;BME280;8926;49.720;6.576;2023-01-26T04:51:04;100386.03;;;-0.24;83.06
17615;BME280;8926;49.720;6.576;2023-01-26T04:53:31;100384.38;;;-0.28;82.80
17615;BME280;8926;49.720;6.576;2023-01-26T04:55:57;100380.94;;;-0.30;83.32
17615;BME280;8926;49.720;6.576;2023-01-26T04:58:23;100378.38;;;-0.27;83.55
17615;BME280;8926;49.720;6.576;2023-01-26T05:00:56;100386.94;;;-0.29;83.38
17615;BME280;8926;49.720;6.576;2023-01-26T05:03:22;100379.25;;;-0.34;83.41
17615;BME280;8926;49.720;6.576;2023-01-26T05:05:49;100372.41;;;-0.38;82.58
17615;BME280;8926;49.720;6.576;2023-01-26T05:08:15;100379.25;;;-0.43;83.30
17615;BME280;8926;49.720;6.576;2023-01-26T05:10:41;100372.41;;;-0.47;83.38
17615;BME280;8926;49.720;6.576;2023-01-26T05:13:07;100371.56;;;-0.46;83.21
17615;BME280;8926;49.720;6.576;2023-01-26T05:15:32;100377.53;;;-0.50;83.11
17615;BME280;8926;49.720;6.576;2023-01-26T05:17:58;100374.16;;;-0.52;83.21
17615;BME280;8926;49.720;6.576;2023-01-26T05:20:24;100380.97;;;-0.51;83.64
17615;BME280;8926;49.720;6.576;2023-01-26T05:22:49;100370.69;;;-0.51;83.06
17615;BME280;8926;49.720;6.576;2023-01-26T05:25:15;100372.44;;;-0.56;82.78
17615;BME280;8926;49.720;6.576;2023-01-26T05:27:41;100375.00;;;-0.55;83.36
17615;BME280;8926;49.720;6.576;2023-01-26T05:30:06;100374.16;;;-0.52;83.76
17615;BME280;8926;49.720;6.576;2023-01-26T05:32:32;100368.16;;;-0.57;83.52
17615;BME280;8926;49.720;6.576;2023-01-26T05:34:57;100366.47;;;-0.54;83.74
17615;BME280;8926;49.720;6.576;2023-01-26T05:37:24;100365.59;;;-0.54;83.40
17615;BME280;8926;49.720;6.576;2023-01-26T05:39:50;100362.19;;;-0.53;82.90
17615;BME280;8926;49.720;6.576;2023-01-26T05:42:15;100370.75;;;-0.54;82.33
17615;BME280;8926;49.720;6.576;2023-01-26T05:44:40;100369.88;;;-0.55;83.09
17615;BME280;8926;49.720;6.576;2023-01-26T05:47:06;100369.03;;;-0.58;82.27
17615;BME280;8926;49.720;6.576;2023-01-26T05:49:32;100371.59;;;-0.60;82.69
17615;BME280;8926;49.720;6.576;2023-01-26T05:51:57;100374.16;;;-0.64;81.85
17615;BME280;8926;49.720;6.576;2023-01-26T05:54:23;100370.75;;;-0.70;82.11
17615;BME280;8926;49.720;6.576;2023-01-26T05:56:48;100375.88;;;-0.66;82.62
17615;BME280;8926;49.720;6.576;2023-01-26T05:59:14;100366.47;;;-0.61;82.65
17615;BME280;8926;49.720;6.576;2023-01-26T06:01:39;100359.63;;;-0.62;82.27
17615;BME280;8926;49.720;6.576;2023-01-26T06:04:04;100367.31;;;-0.72;81.94
17615;BME280;8926;49.720;6.576;2023-01-26T06:06:30;100367.31;;;-0.75;82.11
17615;BME280;8926;49.720;6.576;2023-01-26T06:08:56;100369.03;;;-0.77;82.90
17615;BME280;8926;49.720;6.576;2023-01-26T06:11:22;100363.06;;;-0.82;82.48
17615;BME280;8926;49.720;6.576;2023-01-26T06:13:47;100372.47;;;-0.81;83.19
17615;BME280;8926;49.720;6.576;2023-01-26T06:16:13;100372.44;;;-0.78;82.43
17615;BME280;8926;49.720;6.576;2023-01-26T06:18:38;100375.88;;;-0.76;82.87
17615;BME280;8926;49.720;6.576;2023-01-26T06:21:04;100375.91;;;-0.79;82.26
17615;BME280;8926;49.720;6.576;2023-01-26T06:23:29;100370.78;;;-0.79;82.38
17615;BME280;8926;49.720;6.576;2023-01-26T06:25:59;100371.59;;;-0.75;82.66
17615;BME280;8926;49.720;6.576;2023-01-26T06:28:25;100379.28;;;-0.77;82.64
17615;BME280;8926;49.720;6.576;2023-01-26T06:30:51;100381.00;;;-0.73;83.03
17615;BME280;8926;49.720;6.576;2023-01-26T06:33:17;100382.72;;;-0.65;83.18
17615;BME280;8926;49.720;6.576;2023-01-26T06:35:42;100382.72;;;-0.62;82.87
17615;BME280;8926;49.720;6.576;2023-01-26T06:38:08;100381.00;;;-0.63;82.86
17615;BME280;8926;49.720;6.576;2023-01-26T06:40:33;100381.00;;;-0.63;82.18
17615;BME280;8926;49.720;6.576;2023-01-26T06:42:58;100384.41;;;-0.64;82.21
17615;BME280;8926;49.720;6.576;2023-01-26T06:45:23;100387.00;;;-0.63;82.41
17615;BME280;8926;49.720;6.576;2023-01-26T06:47:50;100387.84;;;-0.62;83.04
17615;BME280;8926;49.720;6.576;2023-01-26T06:50:18;100390.41;;;-0.67;82.23
17615;BME280;8926;49.720;6.576;2023-01-26T06:52:46;100399.81;;;-0.68;82.78
17615;BME280;8926;49.720;6.576;2023-01-26T06:55:21;100392.97;;;-0.62;82.54
17615;BME280;8926;49.720;6.576;2023-01-26T06:57:48;100400.66;;;-0.56;82.01
17615;BME280;8926;49.720;6.576;2023-01-26T07:00:13;100403.22;;;-0.59;82.55
17615;BME280;8926;49.720;6.576;2023-01-26T07:02:39;100399.81;;;-0.61;81.92
17615;BME280;8926;49.720;6.576;2023-01-26T07:05:04;100404.94;;;-0.68;82.63
17615;BME280;8926;49.720;6.576;2023-01-26T07:07:30;100401.53;;;-0.70;82.75
17615;BME280;8926;49.720;6.576;2023-01-26T07:09:55;100404.94;;;-0.71;82.38
17615;BME280;8926;49.720;6.576;2023-01-26T07:12:20;100403.22;;;-0.69;82.51
17615;BME280;8926;49.720;6.576;2023-01-26T07:14:46;100414.34;;;-0.74;83.28
17615;BME280;8926;49.720;6.576;2023-01-26T07:17:12;100418.63;;;-0.78;83.18
17615;BME280;8926;49.720;6.576;2023-01-26T07:19:37;100421.22;;;-0.79;83.74
17615;BME280;8926;49.720;6.576;2023-01-26T07:22:03;100427.19;;;-0.82;83.43
17615;BME280;8926;49.720;6.576;2023-01-26T07:24:28;100434.03;;;-0.81;83.96
17615;BME280;8926;49.720;6.576;2023-01-26T07:26:54;100437.44;;;-0.79;84.68
17615;BME280;8926;49.720;6.576;2023-01-26T07:29:20;100442.56;;;-0.82;84.05
17615;BME280;8926;49.720;6.576;2023-01-26T07:31:45;100439.16;;;-0.84;84.11
17615;BME280;8926;49.720;6.576;2023-01-26T07:34:11;100443.44;;;-0.84;84.32
17615;BME280;8926;49.720;6.576;2023-01-26T07:36:36;100446.00;;;-0.83;83.94
17615;BME280;8926;49.720;6.576;2023-01-26T07:39:01;100459.66;;;-0.87;83.13
17615;BME280;8926;49.720;6.576;2023-01-26T07:41:27;100452.81;;;-0.88;83.70
17615;BME280;8926;49.720;6.576;2023-01-26T07:43:52;100456.25;;;-0.83;84.02
17615;BME280;8926;49.720;6.576;2023-01-26T07:46:17;100463.94;;;-0.83;82.65
17615;BME280;8926;49.720;6.576;2023-01-26T07:48:43;100463.09;;;-0.82;82.52
17615;BME280;8926;49.720;6.576;2023-01-26T07:51:08;100463.94;;;-0.84;82.19
17615;BME280;8926;49.720;6.576;2023-01-26T07:53:35;100464.78;;;-0.78;83.00
17615;BME280;8926;49.720;6.576;2023-01-26T07:56:05;100462.22;;;-0.70;82.58
17615;BME280;8926;49.720;6.576;2023-01-26T07:58:31;100461.38;;;-0.68;82.13
17615;BME280;8926;49.720;6.576;2023-01-26T08:01:04;100460.53;;;-0.68;82.19
17615;BME280;8926;49.720;6.576;2023-01-26T08:03:29;100452.81;;;-0.73;81.68
17615;BME280;8926;49.720;6.576;2023-01-26T08:05:54;100452.81;;;-0.76;82.19
17615;BME280;8926;49.720;6.576;2023-01-26T08:08:19;100463.06;;;-0.76;81.54
17615;BME280;8926;49.720;6.576;2023-01-26T08:10:45;100461.38;;;-0.89;81.41
17615;BME280;8926;49.720;6.576;2023-01-26T08:13:10;100458.78;;;-0.96;81.54
17615;BME280;8926;49.720;6.576;2023-01-26T08:15:35;100451.09;;;-1.04;82.13
17615;BME280;8926;49.720;6.576;2023-01-26T08:18:00;100454.53;;;-1.05;81.37
17615;BME280;8926;49.720;6.576;2023-01-26T08:20:28;100454.50;;;-1.02;82.07
17615;BME280;8926;49.720;6.576;2023-01-26T08:22:53;100455.38;;;-0.95;81.82
17615;BME280;8926;49.720;6.576;2023-01-26T08:25:18;100464.78;;;-0.90;82.42
17615;BME280;8926;49.720;6.576;2023-01-26T08:27:44;100461.38;;;-0.81;82.23
17615;BME280;8926;49.720;6.576;2023-01-26T08:30:10;100458.81;;;-0.81;81.21
17615;BME280;8926;49.720;6.576;2023-01-26T08:32:35;100459.69;;;-0.81;81.37
17615;BME280;8926;49.720;6.576;2023-01-26T08:35:00;100461.38;;;-0.74;80.98
17615;BME280;8926;49.720;6.576;2023-01-26T08:37:26;100459.66;;;-0.72;80.14
17615;BME280;8926;49.720;6.576;2023-01-26T08:39:51;100459.69;;;-0.62;80.91
17615;BME280;8926;49.720;6.576;2023-01-26T08:42:16;100455.38;;;-0.51;80.58
17615;BME280;8926;49.720;6.576;2023-01-26T08:44:42;100456.25;;;-0.43;80.78
17615;BME280;8926;49.720;6.576;2023-01-26T08:47:07;100457.94;;;-0.36;80.63
17615;BME280;8926;49.720;6.576;2023-01-26T08:49:32;100460.53;;;-0.31;79.05
17615;BME280;8926;49.720;6.576;2023-01-26T08:51:58;100467.38;;;-0.27;79.58
17615;BME280;8926;49.720;6.576;2023-01-26T08:54:23;100463.06;;;-0.21;79.43
17615;BME280;8926;49.720;6.576;2023-01-26T08:56:48;100464.75;;;-0.14;79.33
17615;BME280;8926;49.720;6.576;2023-01-26T08:59:13;100461.31;;;-0.07;79.35
17615;BME280;8926;49.720;6.576;2023-01-26T09:01:39;100461.31;;;-0.07;78.67
17615;BME280;8926;49.720;6.576;2023-01-26T09:04:04;100461.31;;;-0.04;80.27
17615;BME280;8926;49.720;6.576;2023-01-26T09:06:29;100453.63;;;-0.02;79.10
17615;BME280;8926;49.720;6.576;2023-01-26T09:08:57;100455.28;;;0.02;79.97
17615;BME280;8926;49.720;6.576;2023-01-26T09:11:22;100453.56;;;0.06;79.43
17615;BME280;8926;49.720;6.576;2023-01-26T09:13:51;100449.28;;;0.09;78.51
17615;BME280;8926;49.720;6.576;2023-01-26T09:16:23;100455.28;;;0.11;78.35
17615;BME280;8926;49.720;6.576;2023-01-26T09:18:49;100451.84;;;0.14;78.42
17615;BME280;8926;49.720;6.576;2023-01-26T09:21:15;100453.53;;;0.21;78.20
17615;BME280;8926;49.720;6.576;2023-01-26T09:23:41;100451.78;;;0.27;79.21
17615;BME280;8926;49.720;6.576;2023-01-26T09:26:06;100437.22;;;0.31;77.35
17615;BME280;8926;49.720;6.576;2023-01-26T09:28:31;100443.16;;;0.48;78.10
17615;BME280;8926;49.720;6.576;2023-01-26T09:31:02;100442.22;;;0.58;78.49
17615;BME280;8926;49.720;6.576;2023-01-26T09:33:27;100435.34;;;0.70;77.88
17615;BME280;8926;49.720;6.576;2023-01-26T09:35:52;100439.63;;;0.67;77.99
17615;BME280;8926;49.720;6.576;2023-01-26T09:38:17;100434.44;;;0.75;77.85
17615;BME280;8926;49.720;6.576;2023-01-26T09:41:06;100442.09;;;0.83;79.11
17615;BME280;8926;49.720;6.576;2023-01-26T09:43:46;100446.44;;;0.76;78.10
17615;BME280;8926;49.720;6.576;2023-01-26T09:46:21;100445.53;;;0.79;78.68
17615;BME280;8926;49.720;6.576;2023-01-26T09:51:33;100446.34;;;0.91;79.08
17615;BME280;8926;49.720;6.576;2023-01-26T09:56:47;100438.50;;;1.07;78.33
17615;BME280;8926;49.720;6.576;2023-01-26T09:59:43;100441.91;;;1.10;79.44
17615;BME280;8926;49.720;6.576;2023-01-26T10:04:36;100440.16;;;1.15;80.13
17615;BME280;8926;49.720;6.576;2023-01-26T10:07:09;100437.59;;;1.14;79.15
17615;BME280;8926;49.720;6.576;2023-01-26T10:09:36;100439.31;;;1.13;79.15
17615;BME280;8926;49.720;6.576;2023-01-26T10:12:33;100440.16;;;1.15;79.96
17615;BME280;8926;49.720;6.576;2023-01-26T10:15:24;100442.72;;;1.20;79.20
17615;BME280;8926;49.720;6.576;2023-01-26T10:17:52;100435.81;;;1.23;79.31
17615;BME280;8926;49.720;6.576;2023-01-26T10:23:11;100429.72;;;1.33;79.78
17615;BME280;8926;49.720;6.576;2023-01-26T10:25:39;100431.34;;;1.47;79.83
17615;BME280;8926;49.720;6.576;2023-01-26T10:28:30;100439.94;;;1.46;79.03
17615;BME280;8926;49.720;6.576;2023-01-26T10:30:59;100436.44;;;1.53;78.99
17615;BME280;8926;49.720;6.576;2023-01-26T10:33:31;100433.00;;;1.52;78.90
17615;BME280;8926;49.720;6.576;2023-01-26T10:35:58;100434.72;;;1.55;79.09
17615;BME280;8926;49.720;6.576;2023-01-26T10:41:03;100427.94;;;1.45;78.60
17615;BME280;8926;49.720;6.576;2023-01-26T10:43:39;100416.81;;;1.36;79.12
17615;BME280;8926;49.720;6.576;2023-01-26T10:46:05;100422.91;;;1.29;78.87
17615;BME280;8926;49.720;6.576;2023-01-26T10:48:31;100416.97;;;1.20;79.08
17615;BME280;8926;49.720;6.576;2023-01-26T10:51:14;100417.00;;;1.18;79.32
17615;BME280;8926;49.720;6.576;2023-01-26T10:53:40;100423.88;;;1.15;79.21
17615;BME280;8926;49.720;6.576;2023-01-26T10:56:12;100423.03;;;1.14;79.59
17615;BME280;8926;49.720;6.576;2023-01-26T11:01:08;100417.81;;;1.23;80.10
17615;BME280;8926;49.720;6.576;2023-01-26T11:03:37;100413.53;;;1.24;80.36
17615;BME280;8926;49.720;6.576;2023-01-26T11:06:16;100414.38;;;1.24;79.49
17615;BME280;8926;49.720;6.576;2023-01-26T11:08:42;100418.66;;;1.27;80.36
17615;BME280;8926;49.720;6.576;2023-01-26T11:11:37;100400.56;;;1.31;80.34
17615;BME280;8926;49.720;6.576;2023-01-26T11:14:18;100402.34;;;1.29;79.80
17615;BME280;8926;49.720;6.576;2023-01-26T11:16:55;100404.06;;;1.27;80.04
17615;BME280;8926;49.720;6.576;2023-01-26T11:22:10;100385.25;;;1.19;79.84
17615;BME280;8926;49.720;6.576;2023-01-26T11:24:48;100390.41;;;1.16;81.00
17615;BME280;8926;49.720;6.576;2023-01-26T11:33:00;100387.00;;;1.14;80.52
17615;BME280;8926;49.720;6.576;2023-01-26T11:35:38;100381.00;;;1.14;80.56
17615;BME280;8926;49.720;6.576;2023-01-26T11:43:47;100376.66;;;1.20;81.05
17615;BME280;8926;49.720;6.576;2023-01-26T11:49:28;100363.75;;;1.25;80.36
17615;BME280;8926;49.720;6.576;2023-01-26T11:52:18;100353.47;;;1.26;80.56
17615;BME280;8926;49.720;6.576;2023-01-26T11:57:56;100335.28;;;1.42;81.24
17615;BME280;8926;49.720;6.576;2023-01-26T12:00:47;100336.09;;;1.47;80.38
17615;BME280;8926;49.720;6.576;2023-01-26T12:04:09;100337.84;;;1.43;80.30
17615;BME280;8926;49.720;6.576;2023-01-26T12:08:56;100335.22;;;1.48;80.65
17615;BME280;8926;49.720;6.576;2023-01-26T12:11:25;100330.06;;;1.51;80.49
17615;BME280;8926;49.720;6.576;2023-01-26T12:16:52;100323.16;;;1.54;80.47
17615;BME280;8926;49.720;6.576;2023-01-26T12:22:16;100327.31;;;1.64;80.72
17615;BME280;8926;49.720;6.576;2023-01-26T12:24:53;100319.53;;;1.69;80.24
17615;BME280;8926;49.720;6.576;2023-01-26T12:27:32;100319.53;;;1.69;80.04
17615;BME280;8926;49.720;6.576;2023-01-26T12:30:14;100312.63;;;1.73;80.13
17615;BME280;8926;49.720;6.576;2023-01-26T12:32:42;100309.22;;;1.69;80.15
17615;BME280;8926;49.720;6.576;2023-01-26T12:35:11;100307.50;;;1.71;80.18
17615;BME280;8926;49.720;6.576;2023-01-26T12:37:46;100300.66;;;1.67;79.91
17615;BME280;8926;49.720;6.576;2023-01-26T12:40:28;100300.59;;;1.73;80.48
17615;BME280;8926;49.720;6.576;2023-01-26T12:45:34;100293.81;;;1.66;80.73
17615;BME280;8926;49.720;6.576;2023-01-26T12:48:17;100290.34;;;1.70;80.92
17615;BME280;8926;49.720;6.576;2023-01-26T12:53:15;100291.19;;;1.70;82.61
17615;BME280;8926;49.720;6.576;2023-01-26T12:55:53;100285.22;;;1.67;82.77
17615;BME280;8926;49.720;6.576;2023-01-26T12:58:36;100282.66;;;1.65;83.53
17615;BME280;8926;49.720;6.576;2023-01-26T13:01:08;100278.38;;;1.66;85.27
17615;BME280;8926;49.720;6.576;2023-01-26T13:03:40;100278.34;;;1.67;86.07
17615;BME280;8926;49.720;6.576;2023-01-26T13:11:07;100275.75;;;1.70;85.97
17615;BME280;8926;49.720;6.576;2023-01-26T13:13:53;100278.25;;;1.75;87.45
17615;BME280;8926;49.720;6.576;2023-01-26T13:23:53;100278.88;;;1.94;88.41
17615;BME280;8926;49.720;6.576;2023-01-26T13:28:44;100281.31;;;2.04;88.92
17615;BME280;8926;49.720;6.576;2023-01-26T13:31:11;100276.03;;;2.14;89.75
17615;BME280;8926;49.720;6.576;2023-01-26T13:33:36;100271.75;;;2.13;89.86
17615;BME280;8926;49.720;6.576;2023-01-26T13:36:05;100277.69;;;2.18;90.38
17615;BME280;8926;49.720;6.576;2023-01-26T13:38:41;100274.16;;;2.25;89.98
17615;BME280;8926;49.720;6.576;2023-01-26T13:41:14;100275.91;;;2.23;90.33
17615;BME280;8926;49.720;6.576;2023-01-26T13:43:45;100275.06;;;2.21;90.20
17615;BME280;8926;49.720;6.576;2023-01-26T13:46:30;100278.56;;;2.17;90.24
17615;BME280;8926;49.720;6.576;2023-01-26T13:48:58;100282.00;;;2.16;90.10
17615;BME280;8926;49.720;6.576;2023-01-26T13:51:29;100274.28;;;2.16;90.70
17615;BME280;8926;49.720;6.576;2023-01-26T13:53:56;100281.16;;;2.14;90.56
17615;BME280;8926;49.720;6.576;2023-01-26T13:56:34;100280.28;;;2.16;90.64
17615;BME280;8926;49.720;6.576;2023-01-26T13:59:17;100282.88;;;2.15;90.99
17615;BME280;8926;49.720;6.576;2023-01-26T14:01:44;100288.88;;;2.15;90.84
17615;BME280;8926;49.720;6.576;2023-01-26T14:04:16;100291.53;;;2.11;89.95
17615;BME280;8926;49.720;6.576;2023-01-26T14:06:46;100291.53;;;2.11;90.91
17615;BME280;8926;49.720;6.576;2023-01-26T14:09:13;100287.19;;;2.13;91.82
17615;BME280;8926;49.720;6.576;2023-01-26T14:11:40;100286.31;;;2.14;91.81
17615;BME280;8926;49.720;6.576;2023-01-26T14:14:23;100289.78;;;2.13;91.57
17615;BME280;8926;49.720;6.576;2023-01-26T14:16:49;100285.50;;;2.12;91.60
17615;BME280;8926;49.720;6.576;2023-01-26T14:19:18;100291.44;;;2.17;91.82
17615;BME280;8926;49.720;6.576;2023-01-26T14:21:58;100292.34;;;2.13;91.76
17615;BME280;8926;49.720;6.576;2023-01-26T14:24:35;100291.53;;;2.11;91.97